sensor_id;sensor_type;location;lat;lon;timestamp;P1;durP1;ratioP1;P2;durP2;ratioP2
8102;SDS011;4094;49.948;11.574;2022-12-11T00:01:20;21.70;;;19.70;;
8102;SDS011;4094;49.948;11.574;2022-12-11T00:03:49;21.13;;;19.33;;
8102;SDS011;4094;49.948;11.574;2022-12-11T00:06:19;22.30;;;20.30;;
8102;SDS011;4094;49.948;11.574;2022-12-11T00:08:50;22.10;;;20.10;;
8102;SDS011;4094;49.948;11.574;2022-12-11T00:11:20;22.80;;;20.87;;
8102;SDS011;4094;49.948;11.574;2022-12-11T00:13:51;22.43;;;20.43;;
8102;SDS011;4094;49.948;11.574;2022-12-11T00:16:21;23.07;;;20.97;;
8102;SDS011;4094;49.948;11.574;2022-12-11T00:18:53;21.47;;;19.53;;
8102;SDS011;4094;49.948;11.574;2022-12-11T00:21:23;22.07;;;20.00;;
8102;SDS011;4094;49.948;11.574;2022-12-11T00:23:53;22.43;;;20.40;;
8102;SDS011;4094;49.948;11.574;2022-12-11T00:26:22;21.90;;;19.83;;
8102;SDS011;4094;49.948;11.574;2022-12-11T00:28:54;23.00;;;20.90;;
8102;SDS011;4094;49.948;11.574;2022-12-11T00:31:23;22.53;;;20.47;;
8102;SDS011;4094;49.948;11.574;2022-12-11T00:33:53;22.03;;;20.03;;
8102;SDS011;4094;49.948;11.574;2022-12-11T00:36:23;22.87;;;20.77;;
8102;SDS011;4094;49.948;11.574;2022-12-11T00:38:53;22.50;;;20.40;;
8102;SDS011;4094;49.948;11.574;2022-12-11T00:41:23;22.73;;;20.70;;
8102;SDS011;4094;49.948;11.574;2022-12-11T00:43:54;23.33;;;21.23;;
8102;SDS011;4094;49.948;11.574;2022-12-11T00:46:23;22.70;;;20.60;;
8102;SDS011;4094;49.948;11.574;2022-12-11T00:48:52;22.03;;;20.03;;
8102;SDS011;4094;49.948;11.574;2022-12-11T00:51:21;23.63;;;21.43;;
8102;SDS011;4094;49.948;11.574;2022-12-11T00:53:52;22.03;;;20.10;;
8102;SDS011;4094;49.948;11.574;2022-12-11T00:56:21;22.30;;;20.20;;
8102;SDS011;4094;49.948;11.574;2022-12-11T00:58:51;22.77;;;20.67;;
8102;SDS011;4094;49.948;11.574;2022-12-11T01:01:22;22.53;;;20.63;;
8102;SDS011;4094;49.948;11.574;2022-12-11T01:03:52;22.63;;;20.63;;
8102;SDS011;4094;49.948;11.574;2022-12-11T01:06:22;22.17;;;20.27;;
8102;SDS011;4094;49.948;11.574;2022-12-11T01:08:53;20.97;;;18.97;;
8102;SDS011;4094;49.948;11.574;2022-12-11T01:11:36;22.57;;;20.57;;
8102;SDS011;4094;49.948;11.574;2022-12-11T01:14:05;23.90;;;21.70;;
8102;SDS011;4094;49.948;11.574;2022-12-11T01:16:37;22.77;;;20.77;;
8102;SDS011;4094;49.948;11.574;2022-12-11T01:19:06;23.70;;;21.60;;
8102;SDS011;4094;49.948;11.574;2022-12-11T01:21:35;22.83;;;20.80;;
8102;SDS011;4094;49.948;11.574;2022-12-11T01:24:04;22.47;;;20.37;;
8102;SDS011;4094;49.948;11.574;2022-12-11T01:26:33;22.87;;;20.77;;
8102;SDS011;4094;49.948;11.574;2022-12-11T01:29:02;23.23;;;21.13;;
8102;SDS011;4094;49.948;11.574;2022-12-11T01:31:31;22.83;;;20.77;;
8102;SDS011;4094;49.948;11.574;2022-12-11T01:34:01;23.00;;;21.00;;
8102;SDS011;4094;49.948;11.574;2022-12-11T01:36:30;21.53;;;19.57;;
8102;SDS011;4094;49.948;11.574;2022-12-11T01:38:59;22.40;;;20.40;;
8102;SDS011;4094;49.948;11.574;2022-12-11T01:41:28;22.43;;;20.40;;
8102;SDS011;4094;49.948;11.574;2022-12-11T01:43:58;23.60;;;21.50;;
8102;SDS011;4094;49.948;11.574;2022-12-11T01:46:30;22.53;;;20.50;;
8102;SDS011;4094;49.948;11.574;2022-12-11T01:49:02;22.20;;;20.20;;
8102;SDS011;4094;49.948;11.574;2022-12-11T01:51:35;23.50;;;21.40;;
8102;SDS011;4094;49.948;11.574;2022-12-11T01:54:09;23.30;;;21.20;;
8102;SDS011;4094;49.948;11.574;2022-12-11T01:56:41;23.40;;;21.10;;
8102;SDS011;4094;49.948;11.574;2022-12-11T01:59:12;22.37;;;20.37;;
8102;SDS011;4094;49.948;11.574;2022-12-11T02:01:46;23.03;;;21.03;;
8102;SDS011;4094;49.948;11.574;2022-12-11T02:04:19;23.87;;;21.70;;
8102;SDS011;4094;49.948;11.574;2022-12-11T02:06:50;23.33;;;21.33;;
8102;SDS011;4094;49.948;11.574;2022-12-11T02:09:21;23.10;;;20.90;;
8102;SDS011;4094;49.948;11.574;2022-12-11T02:11:54;23.10;;;20.93;;
8102;SDS011;4094;49.948;11.574;2022-12-11T02:14:30;23.13;;;20.93;;
8102;SDS011;4094;49.948;11.574;2022-12-11T02:17:05;23.20;;;21.10;;
8102;SDS011;4094;49.948;11.574;2022-12-11T02:19:46;23.17;;;21.07;;
8102;SDS011;4094;49.948;11.574;2022-12-11T02:22:26;23.63;;;21.53;;
8102;SDS011;4094;49.948;11.574;2022-12-11T02:25:04;23.73;;;21.57;;
8102;SDS011;4094;49.948;11.574;2022-12-11T02:27:41;24.57;;;22.23;;
8102;SDS011;4094;49.948;11.574;2022-12-11T02:30:16;24.27;;;22.07;;
8102;SDS011;4094;49.948;11.574;2022-12-11T02:32:46;25.30;;;22.90;;
8102;SDS011;4094;49.948;11.574;2022-12-11T02:35:21;24.93;;;22.73;;
8102;SDS011;4094;49.948;11.574;2022-12-11T02:37:54;24.30;;;22.10;;
8102;SDS011;4094;49.948;11.574;2022-12-11T02:40:27;25.57;;;23.27;;
8102;SDS011;4094;49.948;11.574;2022-12-11T02:43:00;25.10;;;22.73;;
8102;SDS011;4094;49.948;11.574;2022-12-11T02:45:33;25.83;;;23.33;;
8102;SDS011;4094;49.948;11.574;2022-12-11T02:48:02;25.53;;;23.20;;
8102;SDS011;4094;49.948;11.574;2022-12-11T02:50:35;25.37;;;22.97;;
8102;SDS011;4094;49.948;11.574;2022-12-11T02:53:10;25.73;;;23.33;;
8102;SDS011;4094;49.948;11.574;2022-12-11T02:55:43;25.43;;;22.93;;
8102;SDS011;4094;49.948;11.574;2022-12-11T02:58:15;25.83;;;23.33;;
8102;SDS011;4094;49.948;11.574;2022-12-11T03:00:48;26.67;;;24.17;;
8102;SDS011;4094;49.948;11.574;2022-12-11T03:03:18;26.37;;;23.77;;
8102;SDS011;4094;49.948;11.574;2022-12-11T03:05:47;26.57;;;24.13;;
8102;SDS011;4094;49.948;11.574;2022-12-11T03:08:16;25.77;;;23.27;;
8102;SDS011;4094;49.948;11.574;2022-12-11T03:10:45;25.07;;;22.77;;
8102;SDS011;4094;49.948;11.574;2022-12-11T03:13:14;26.83;;;24.23;;
8102;SDS011;4094;49.948;11.574;2022-12-11T03:15:51;25.93;;;23.57;;
8102;SDS011;4094;49.948;11.574;2022-12-11T03:18:33;26.03;;;23.53;;
8102;SDS011;4094;49.948;11.574;2022-12-11T03:21:12;24.90;;;22.43;;
8102;SDS011;4094;49.948;11.574;2022-12-11T03:23:46;26.20;;;23.77;;
8102;SDS011;4094;49.948;11.574;2022-12-11T03:26:19;26.77;;;24.27;;
8102;SDS011;4094;49.948;11.574;2022-12-11T03:28:53;26.90;;;24.40;;
8102;SDS011;4094;49.948;11.574;2022-12-11T03:31:28;27.20;;;24.60;;
8102;SDS011;4094;49.948;11.574;2022-12-11T03:34:03;26.73;;;24.23;;
8102;SDS011;4094;49.948;11.574;2022-12-11T03:36:40;26.73;;;24.13;;
8102;SDS011;4094;49.948;11.574;2022-12-11T03:39:11;26.60;;;24.00;;
8102;SDS011;4094;49.948;11.574;2022-12-11T03:41:44;24.07;;;21.87;;
8102;SDS011;4094;49.948;11.574;2022-12-11T03:44:15;24.00;;;21.77;;
8102;SDS011;4094;49.948;11.574;2022-12-11T03:46:47;24.63;;;22.23;;
8102;SDS011;4094;49.948;11.574;2022-12-11T03:49:19;24.53;;;22.23;;
8102;SDS011;4094;49.948;11.574;2022-12-11T03:51:54;23.90;;;21.70;;
8102;SDS011;4094;49.948;11.574;2022-12-11T03:54:25;23.40;;;21.17;;
8102;SDS011;4094;49.948;11.574;2022-12-11T03:56:55;22.87;;;20.77;;
8102;SDS011;4094;49.948;11.574;2022-12-11T03:59:26;22.87;;;20.77;;
8102;SDS011;4094;49.948;11.574;2022-12-11T04:01:56;21.57;;;19.63;;
8102;SDS011;4094;49.948;11.574;2022-12-11T04:04:25;21.60;;;19.77;;
8102;SDS011;4094;49.948;11.574;2022-12-11T04:06:54;22.53;;;20.53;;
8102;SDS011;4094;49.948;11.574;2022-12-11T04:09:24;23.27;;;21.27;;
8102;SDS011;4094;49.948;11.574;2022-12-11T04:11:53;22.97;;;21.03;;
8102;SDS011;4094;49.948;11.574;2022-12-11T04:14:21;21.80;;;19.77;;
8102;SDS011;4094;49.948;11.574;2022-12-11T04:17:10;21.50;;;19.67;;
8102;SDS011;4094;49.948;11.574;2022-12-11T04:19:59;23.47;;;21.27;;
8102;SDS011;4094;49.948;11.574;2022-12-11T04:22:44;22.30;;;20.37;;
8102;SDS011;4094;49.948;11.574;2022-12-11T04:25:30;24.13;;;21.87;;
8102;SDS011;4094;49.948;11.574;2022-12-11T04:27:59;22.93;;;20.83;;
8102;SDS011;4094;49.948;11.574;2022-12-11T04:30:28;22.67;;;20.73;;
8102;SDS011;4094;49.948;11.574;2022-12-11T04:33:02;23.87;;;21.67;;
8102;SDS011;4094;49.948;11.574;2022-12-11T04:35:31;22.93;;;20.83;;
8102;SDS011;4094;49.948;11.574;2022-12-11T04:38:00;23.00;;;21.00;;
8102;SDS011;4094;49.948;11.574;2022-12-11T04:40:29;22.63;;;20.60;;
8102;SDS011;4094;49.948;11.574;2022-12-11T04:42:58;23.13;;;21.13;;
8102;SDS011;4094;49.948;11.574;2022-12-11T04:45:27;23.33;;;21.43;;
8102;SDS011;4094;49.948;11.574;2022-12-11T04:47:56;23.33;;;21.30;;
8102;SDS011;4094;49.948;11.574;2022-12-11T04:50:27;24.77;;;22.37;;
8102;SDS011;4094;49.948;11.574;2022-12-11T04:52:56;23.57;;;21.50;;
8102;SDS011;4094;49.948;11.574;2022-12-11T04:55:25;23.27;;;21.07;;
8102;SDS011;4094;49.948;11.574;2022-12-11T04:57:54;23.10;;;21.00;;
8102;SDS011;4094;49.948;11.574;2022-12-11T05:00:23;24.47;;;22.27;;
8102;SDS011;4094;49.948;11.574;2022-12-11T05:02:52;24.30;;;22.07;;
8102;SDS011;4094;49.948;11.574;2022-12-11T05:05:21;25.73;;;23.33;;
8102;SDS011;4094;49.948;11.574;2022-12-11T05:07:51;22.90;;;20.90;;
8102;SDS011;4094;49.948;11.574;2022-12-11T05:10:20;24.93;;;22.53;;
8102;SDS011;4094;49.948;11.574;2022-12-11T05:12:49;24.63;;;22.43;;
8102;SDS011;4094;49.948;11.574;2022-12-11T05:15:17;24.43;;;22.23;;
8102;SDS011;4094;49.948;11.574;2022-12-11T05:17:46;25.30;;;22.90;;
8102;SDS011;4094;49.948;11.574;2022-12-11T05:20:15;26.07;;;23.63;;
8102;SDS011;4094;49.948;11.574;2022-12-11T05:22:44;25.33;;;22.93;;
8102;SDS011;4094;49.948;11.574;2022-12-11T05:25:15;26.47;;;24.00;;
8102;SDS011;4094;49.948;11.574;2022-12-11T05:27:44;25.87;;;23.47;;
8102;SDS011;4094;49.948;11.574;2022-12-11T05:30:13;25.73;;;23.33;;
8102;SDS011;4094;49.948;11.574;2022-12-11T05:32:42;25.13;;;22.87;;
8102;SDS011;4094;49.948;11.574;2022-12-11T05:35:11;25.10;;;22.87;;
8102;SDS011;4094;49.948;11.574;2022-12-11T05:37:40;26.13;;;23.77;;
8102;SDS011;4094;49.948;11.574;2022-12-11T05:40:09;25.30;;;22.63;;
8102;SDS011;4094;49.948;11.574;2022-12-11T05:42:40;25.03;;;22.63;;
8102;SDS011;4094;49.948;11.574;2022-12-11T05:45:09;25.97;;;23.53;;
8102;SDS011;4094;49.948;11.574;2022-12-11T05:47:39;24.80;;;22.50;;
8102;SDS011;4094;49.948;11.574;2022-12-11T05:50:08;23.37;;;21.27;;
8102;SDS011;4094;49.948;11.574;2022-12-11T05:52:37;24.67;;;22.50;;
8102;SDS011;4094;49.948;11.574;2022-12-11T05:55:06;24.67;;;22.37;;
8102;SDS011;4094;49.948;11.574;2022-12-11T05:57:37;24.33;;;22.23;;
8102;SDS011;4094;49.948;11.574;2022-12-11T06:00:08;24.03;;;21.93;;
8102;SDS011;4094;49.948;11.574;2022-12-11T06:02:39;24.00;;;21.90;;
8102;SDS011;4094;49.948;11.574;2022-12-11T06:05:08;24.03;;;21.97;;
8102;SDS011;4094;49.948;11.574;2022-12-11T06:07:38;24.10;;;22.00;;
8102;SDS011;4094;49.948;11.574;2022-12-11T06:10:07;23.80;;;21.70;;
8102;SDS011;4094;49.948;11.574;2022-12-11T06:12:37;22.73;;;20.63;;
8102;SDS011;4094;49.948;11.574;2022-12-11T06:15:08;23.23;;;21.10;;
8102;SDS011;4094;49.948;11.574;2022-12-11T06:17:38;24.13;;;21.93;;
8102;SDS011;4094;49.948;11.574;2022-12-11T06:20:08;23.73;;;21.63;;
8102;SDS011;4094;49.948;11.574;2022-12-11T06:22:38;23.40;;;21.27;;
8102;SDS011;4094;49.948;11.574;2022-12-11T06:25:07;23.63;;;21.50;;
8102;SDS011;4094;49.948;11.574;2022-12-11T06:27:37;23.70;;;21.60;;
8102;SDS011;4094;49.948;11.574;2022-12-11T06:30:07;24.10;;;22.00;;
8102;SDS011;4094;49.948;11.574;2022-12-11T06:32:39;24.63;;;22.43;;
8102;SDS011;4094;49.948;11.574;2022-12-11T06:35:08;24.17;;;21.93;;
8102;SDS011;4094;49.948;11.574;2022-12-11T06:37:38;24.23;;;22.00;;
8102;SDS011;4094;49.948;11.574;2022-12-11T06:40:08;24.10;;;21.80;;
8102;SDS011;4094;49.948;11.574;2022-12-11T06:42:39;22.83;;;20.80;;
8102;SDS011;4094;49.948;11.574;2022-12-11T06:45:10;24.07;;;21.87;;
8102;SDS011;4094;49.948;11.574;2022-12-11T06:47:39;23.97;;;21.80;;
8102;SDS011;4094;49.948;11.574;2022-12-11T06:50:08;23.30;;;21.10;;
8102;SDS011;4094;49.948;11.574;2022-12-11T06:52:37;24.20;;;22.00;;
8102;SDS011;4094;49.948;11.574;2022-12-11T06:55:07;23.67;;;21.67;;
8102;SDS011;4094;49.948;11.574;2022-12-11T06:57:36;23.37;;;21.13;;
8102;SDS011;4094;49.948;11.574;2022-12-11T07:00:06;24.57;;;22.40;;
8102;SDS011;4094;49.948;11.574;2022-12-11T07:02:37;23.47;;;21.33;;
8102;SDS011;4094;49.948;11.574;2022-12-11T07:05:07;25.67;;;23.27;;
8102;SDS011;4094;49.948;11.574;2022-12-11T07:07:37;24.70;;;22.47;;
8102;SDS011;4094;49.948;11.574;2022-12-11T07:10:06;23.13;;;21.13;;
8102;SDS011;4094;49.948;11.574;2022-12-11T07:12:36;24.13;;;22.03;;
8102;SDS011;4094;49.948;11.574;2022-12-11T07:15:06;23.53;;;21.50;;
8102;SDS011;4094;49.948;11.574;2022-12-11T07:17:38;24.00;;;21.90;;
8102;SDS011;4094;49.948;11.574;2022-12-11T07:20:07;25.60;;;23.20;;
8102;SDS011;4094;49.948;11.574;2022-12-11T07:22:37;24.33;;;22.03;;
8102;SDS011;4094;49.948;11.574;2022-12-11T07:25:12;25.07;;;22.67;;
8102;SDS011;4094;49.948;11.574;2022-12-11T07:27:42;24.47;;;22.20;;
8102;SDS011;4094;49.948;11.574;2022-12-11T07:30:12;24.63;;;22.43;;
8102;SDS011;4094;49.948;11.574;2022-12-11T07:32:43;25.67;;;23.20;;
8102;SDS011;4094;49.948;11.574;2022-12-11T07:35:12;25.63;;;23.03;;
8102;SDS011;4094;49.948;11.574;2022-12-11T07:37:41;25.30;;;22.90;;
8102;SDS011;4094;49.948;11.574;2022-12-11T07:40:12;24.23;;;22.03;;
8102;SDS011;4094;49.948;11.574;2022-12-11T07:42:41;24.73;;;22.63;;
8102;SDS011;4094;49.948;11.574;2022-12-11T07:45:12;24.80;;;22.60;;
8102;SDS011;4094;49.948;11.574;2022-12-11T07:47:43;24.20;;;22.00;;
8102;SDS011;4094;49.948;11.574;2022-12-11T07:50:12;25.63;;;23.27;;
8102;SDS011;4094;49.948;11.574;2022-12-11T07:52:41;24.40;;;22.20;;
8102;SDS011;4094;49.948;11.574;2022-12-11T07:55:10;23.80;;;21.67;;
8102;SDS011;4094;49.948;11.574;2022-12-11T07:57:40;24.43;;;22.20;;
8102;SDS011;4094;49.948;11.574;2022-12-11T08:00:09;23.03;;;20.93;;
8102;SDS011;4094;49.948;11.574;2022-12-11T08:02:39;24.00;;;21.83;;
8102;SDS011;4094;49.948;11.574;2022-12-11T08:05:10;24.40;;;22.20;;
8102;SDS011;4094;49.948;11.574;2022-12-11T08:07:40;24.33;;;22.03;;
8102;SDS011;4094;49.948;11.574;2022-12-11T08:10:09;24.53;;;22.33;;
8102;SDS011;4094;49.948;11.574;2022-12-11T08:12:39;23.83;;;21.73;;
8102;SDS011;4094;49.948;11.574;2022-12-11T08:15:09;23.83;;;21.67;;
8102;SDS011;4094;49.948;11.574;2022-12-11T08:17:38;23.40;;;21.10;;
8102;SDS011;4094;49.948;11.574;2022-12-11T08:20:08;23.23;;;21.13;;
8102;SDS011;4094;49.948;11.574;2022-12-11T08:22:40;23.93;;;21.73;;
8102;SDS011;4094;49.948;11.574;2022-12-11T08:25:09;24.00;;;21.70;;
8102;SDS011;4094;49.948;11.574;2022-12-11T08:27:39;24.83;;;22.53;;
8102;SDS011;4094;49.948;11.574;2022-12-11T08:30:08;23.57;;;21.40;;
8102;SDS011;4094;49.948;11.574;2022-12-11T08:32:39;23.87;;;21.70;;
8102;SDS011;4094;49.948;11.574;2022-12-11T08:35:08;24.53;;;22.33;;
8102;SDS011;4094;49.948;11.574;2022-12-11T08:37:39;23.87;;;21.77;;
8102;SDS011;4094;49.948;11.574;2022-12-11T08:40:09;24.00;;;21.80;;
8102;SDS011;4094;49.948;11.574;2022-12-11T08:42:40;23.83;;;21.70;;
8102;SDS011;4094;49.948;11.574;2022-12-11T08:45:10;24.80;;;22.60;;
8102;SDS011;4094;49.948;11.574;2022-12-11T08:47:39;24.50;;;22.30;;
8102;SDS011;4094;49.948;11.574;2022-12-11T08:50:10;23.70;;;21.60;;
8102;SDS011;4094;49.948;11.574;2022-12-11T08:52:40;24.83;;;22.63;;
8102;SDS011;4094;49.948;11.574;2022-12-11T08:55:09;23.50;;;21.33;;
8102;SDS011;4094;49.948;11.574;2022-12-11T08:57:39;23.77;;;21.57;;
8102;SDS011;4094;49.948;11.574;2022-12-11T09:00:10;23.60;;;21.60;;
8102;SDS011;4094;49.948;11.574;2022-12-11T09:02:40;21.20;;;19.30;;
8102;SDS011;4094;49.948;11.574;2022-12-11T09:05:11;23.37;;;21.27;;
8102;SDS011;4094;49.948;11.574;2022-12-11T09:07:41;23.13;;;21.03;;
8102;SDS011;4094;49.948;11.574;2022-12-11T09:10:11;22.70;;;20.80;;
8102;SDS011;4094;49.948;11.574;2022-12-11T09:12:40;23.03;;;20.93;;
8102;SDS011;4094;49.948;11.574;2022-12-11T09:15:09;23.27;;;21.27;;
8102;SDS011;4094;49.948;11.574;2022-12-11T09:17:39;23.07;;;20.97;;
8102;SDS011;4094;49.948;11.574;2022-12-11T09:20:08;22.57;;;20.57;;
8102;SDS011;4094;49.948;11.574;2022-12-11T09:22:39;23.07;;;21.07;;
8102;SDS011;4094;49.948;11.574;2022-12-11T09:25:09;22.57;;;20.67;;
8102;SDS011;4094;49.948;11.574;2022-12-11T09:27:40;24.33;;;22.10;;
8102;SDS011;4094;49.948;11.574;2022-12-11T09:30:09;22.40;;;20.50;;
8102;SDS011;4094;49.948;11.574;2022-12-11T09:32:39;23.37;;;21.27;;
8102;SDS011;4094;49.948;11.574;2022-12-11T09:35:08;21.27;;;19.37;;
8102;SDS011;4094;49.948;11.574;2022-12-11T09:37:39;22.17;;;20.27;;
8102;SDS011;4094;49.948;11.574;2022-12-11T09:40:09;23.43;;;21.27;;
8102;SDS011;4094;49.948;11.574;2022-12-11T09:42:44;22.23;;;20.23;;
8102;SDS011;4094;49.948;11.574;2022-12-11T09:45:18;23.00;;;21.00;;
8102;SDS011;4094;49.948;11.574;2022-12-11T09:47:48;22.20;;;20.17;;
8102;SDS011;4094;49.948;11.574;2022-12-11T09:50:20;23.07;;;20.90;;
8102;SDS011;4094;49.948;11.574;2022-12-11T09:52:58;21.93;;;20.00;;
8102;SDS011;4094;49.948;11.574;2022-12-11T09:55:38;21.53;;;19.67;;
8102;SDS011;4094;49.948;11.574;2022-12-11T09:58:16;20.93;;;19.13;;
8102;SDS011;4094;49.948;11.574;2022-12-11T10:00:52;21.47;;;19.57;;
8102;SDS011;4094;49.948;11.574;2022-12-11T10:03:30;21.47;;;19.57;;
8102;SDS011;4094;49.948;11.574;2022-12-11T10:06:22;20.83;;;19.13;;
8102;SDS011;4094;49.948;11.574;2022-12-11T10:09:02;20.53;;;18.83;;
8102;SDS011;4094;49.948;11.574;2022-12-11T10:11:53;19.77;;;18.17;;
8102;SDS011;4094;49.948;11.574;2022-12-11T10:14:32;21.17;;;19.37;;
8102;SDS011;4094;49.948;11.574;2022-12-11T10:17:11;19.40;;;17.80;;
8102;SDS011;4094;49.948;11.574;2022-12-11T10:19:46;20.03;;;18.30;;
8102;SDS011;4094;49.948;11.574;2022-12-11T10:22:17;19.40;;;17.80;;
8102;SDS011;4094;49.948;11.574;2022-12-11T10:24:53;19.63;;;18.03;;
8102;SDS011;4094;49.948;11.574;2022-12-11T10:27:38;19.63;;;18.03;;
8102;SDS011;4094;49.948;11.574;2022-12-11T10:30:12;19.10;;;17.60;;
8102;SDS011;4094;49.948;11.574;2022-12-11T10:32:49;18.70;;;17.17;;
8102;SDS011;4094;49.948;11.574;2022-12-11T10:35:30;19.17;;;17.67;;
8102;SDS011;4094;49.948;11.574;2022-12-11T10:38:09;18.10;;;16.60;;
8102;SDS011;4094;49.948;11.574;2022-12-11T10:40:44;19.37;;;17.77;;
8102;SDS011;4094;49.948;11.574;2022-12-11T10:43:14;17.90;;;16.50;;
8102;SDS011;4094;49.948;11.574;2022-12-11T10:45:50;17.43;;;16.10;;
8102;SDS011;4094;49.948;11.574;2022-12-11T10:48:20;17.00;;;15.70;;
8102;SDS011;4094;49.948;11.574;2022-12-11T10:50:54;20.13;;;18.47;;
8102;SDS011;4094;49.948;11.574;2022-12-11T10:53:26;20.23;;;18.33;;
8102;SDS011;4094;49.948;11.574;2022-12-11T10:55:58;21.03;;;19.27;;
8102;SDS011;4094;49.948;11.574;2022-12-11T10:58:28;20.20;;;18.60;;
8102;SDS011;4094;49.948;11.574;2022-12-11T11:01:05;21.20;;;19.40;;
8102;SDS011;4094;49.948;11.574;2022-12-11T11:03:37;21.17;;;19.37;;
8102;SDS011;4094;49.948;11.574;2022-12-11T11:06:20;21.20;;;19.40;;
8102;SDS011;4094;49.948;11.574;2022-12-11T11:08:50;21.93;;;20.03;;
8102;SDS011;4094;49.948;11.574;2022-12-11T11:11:23;24.67;;;22.33;;
8102;SDS011;4094;49.948;11.574;2022-12-11T11:14:11;23.27;;;21.20;;
8102;SDS011;4094;49.948;11.574;2022-12-11T11:16:43;24.37;;;22.07;;
8102;SDS011;4094;49.948;11.574;2022-12-11T11:19:16;23.53;;;21.43;;
8102;SDS011;4094;49.948;11.574;2022-12-11T11:21:49;22.50;;;20.40;;
8102;SDS011;4094;49.948;11.574;2022-12-11T11:24:23;20.63;;;18.90;;
8102;SDS011;4094;49.948;11.574;2022-12-11T11:26:56;21.53;;;19.83;;
8102;SDS011;4094;49.948;11.574;2022-12-11T11:29:41;21.33;;;19.63;;
8102;SDS011;4094;49.948;11.574;2022-12-11T11:32:19;21.83;;;20.00;;
8102;SDS011;4094;49.948;11.574;2022-12-11T11:34:51;21.80;;;19.90;;
8102;SDS011;4094;49.948;11.574;2022-12-11T11:37:22;24.60;;;22.50;;
8102;SDS011;4094;49.948;11.574;2022-12-11T11:40:00;22.83;;;20.77;;
8102;SDS011;4094;49.948;11.574;2022-12-11T11:42:39;21.93;;;19.90;;
8102;SDS011;4094;49.948;11.574;2022-12-11T11:45:13;22.80;;;20.83;;
8102;SDS011;4094;49.948;11.574;2022-12-11T11:47:47;23.57;;;21.37;;
8102;SDS011;4094;49.948;11.574;2022-12-11T11:50:24;23.73;;;21.50;;
8102;SDS011;4094;49.948;11.574;2022-12-11T11:52:59;23.30;;;21.30;;
8102;SDS011;4094;49.948;11.574;2022-12-11T11:55:36;22.33;;;20.50;;
8102;SDS011;4094;49.948;11.574;2022-12-11T11:58:13;21.40;;;19.40;;
8102;SDS011;4094;49.948;11.574;2022-12-11T12:00:49;21.50;;;19.60;;
8102;SDS011;4094;49.948;11.574;2022-12-11T12:03:22;30.73;;;27.43;;
8102;SDS011;4094;49.948;11.574;2022-12-11T12:05:54;32.33;;;27.83;;
8102;SDS011;4094;49.948;11.574;2022-12-11T12:08:37;25.87;;;23.37;;
8102;SDS011;4094;49.948;11.574;2022-12-11T12:11:14;24.87;;;22.50;;
8102;SDS011;4094;49.948;11.574;2022-12-11T12:13:55;22.00;;;20.03;;
8102;SDS011;4094;49.948;11.574;2022-12-11T12:16:56;22.73;;;20.63;;
8102;SDS011;4094;49.948;11.574;2022-12-11T12:19:40;22.20;;;20.20;;
8102;SDS011;4094;49.948;11.574;2022-12-11T12:22:25;21.83;;;20.03;;
8102;SDS011;4094;49.948;11.574;2022-12-11T12:25:14;21.83;;;19.93;;
8102;SDS011;4094;49.948;11.574;2022-12-11T12:27:50;22.87;;;20.83;;
8102;SDS011;4094;49.948;11.574;2022-12-11T12:30:27;22.37;;;20.27;;
8102;SDS011;4094;49.948;11.574;2022-12-11T12:33:09;24.03;;;21.73;;
8102;SDS011;4094;49.948;11.574;2022-12-11T12:35:50;22.03;;;20.10;;
8102;SDS011;4094;49.948;11.574;2022-12-11T12:38:34;23.33;;;21.23;;
8102;SDS011;4094;49.948;11.574;2022-12-11T12:41:13;23.50;;;21.20;;
8102;SDS011;4094;49.948;11.574;2022-12-11T12:43:51;23.47;;;21.37;;
8102;SDS011;4094;49.948;11.574;2022-12-11T12:46:40;23.27;;;21.17;;
8102;SDS011;4094;49.948;11.574;2022-12-11T12:49:20;22.80;;;20.80;;
8102;SDS011;4094;49.948;11.574;2022-12-11T12:52:06;21.90;;;19.90;;
8102;SDS011;4094;49.948;11.574;2022-12-11T12:54:41;21.97;;;20.03;;
8102;SDS011;4094;49.948;11.574;2022-12-11T12:57:35;21.97;;;19.93;;
8102;SDS011;4094;49.948;11.574;2022-12-11T13:00:06;22.17;;;20.23;;
8102;SDS011;4094;49.948;11.574;2022-12-11T13:02:47;21.90;;;20.00;;
8102;SDS011;4094;49.948;11.574;2022-12-11T13:05:18;21.03;;;19.23;;
8102;SDS011;4094;49.948;11.574;2022-12-11T13:07:51;21.50;;;19.63;;
8102;SDS011;4094;49.948;11.574;2022-12-11T13:10:24;21.90;;;20.00;;
8102;SDS011;4094;49.948;11.574;2022-12-11T13:12:57;21.90;;;20.00;;
8102;SDS011;4094;49.948;11.574;2022-12-11T13:21:02;21.73;;;19.93;;
8102;SDS011;4094;49.948;11.574;2022-12-11T13:23:52;21.07;;;19.20;;
8102;SDS011;4094;49.948;11.574;2022-12-11T13:26:28;21.77;;;19.97;;
8102;SDS011;4094;49.948;11.574;2022-12-11T13:29:00;21.10;;;19.20;;
8102;SDS011;4094;49.948;11.574;2022-12-11T13:31:33;20.43;;;18.73;;
8102;SDS011;4094;49.948;11.574;2022-12-11T13:34:14;18.80;;;17.20;;
8102;SDS011;4094;49.948;11.574;2022-12-11T13:36:45;19.10;;;17.60;;
8102;SDS011;4094;49.948;11.574;2022-12-11T13:39:16;18.30;;;16.90;;
8102;SDS011;4094;49.948;11.574;2022-12-11T13:41:50;19.93;;;18.23;;
8102;SDS011;4094;49.948;11.574;2022-12-11T13:44:23;20.80;;;19.07;;
8102;SDS011;4094;49.948;11.574;2022-12-11T13:46:56;19.70;;;18.10;;
8102;SDS011;4094;49.948;11.574;2022-12-11T13:49:29;19.57;;;18.07;;
8102;SDS011;4094;49.948;11.574;2022-12-11T13:52:03;19.03;;;17.53;;
8102;SDS011;4094;49.948;11.574;2022-12-11T13:54:33;19.57;;;17.97;;
8102;SDS011;4094;49.948;11.574;2022-12-11T13:57:12;19.07;;;17.47;;
8102;SDS011;4094;49.948;11.574;2022-12-11T13:59:45;19.77;;;18.07;;
8102;SDS011;4094;49.948;11.574;2022-12-11T14:02:18;19.37;;;17.87;;
8102;SDS011;4094;49.948;11.574;2022-12-11T14:04:53;19.97;;;18.27;;
8102;SDS011;4094;49.948;11.574;2022-12-11T14:07:25;19.90;;;18.20;;
8102;SDS011;4094;49.948;11.574;2022-12-11T14:09:59;19.63;;;17.93;;
8102;SDS011;4094;49.948;11.574;2022-12-11T14:12:30;19.17;;;17.57;;
8102;SDS011;4094;49.948;11.574;2022-12-11T14:15:00;20.20;;;18.50;;
8102;SDS011;4094;49.948;11.574;2022-12-11T14:17:33;20.20;;;18.50;;
8102;SDS011;4094;49.948;11.574;2022-12-11T14:20:05;19.53;;;17.93;;
8102;SDS011;4094;49.948;11.574;2022-12-11T14:22:45;20.10;;;18.33;;
8102;SDS011;4094;49.948;11.574;2022-12-11T14:25:21;18.47;;;16.87;;
8102;SDS011;4094;49.948;11.574;2022-12-11T14:27:53;19.50;;;17.90;;
8102;SDS011;4094;49.948;11.574;2022-12-11T14:30:24;19.27;;;17.67;;
8102;SDS011;4094;49.948;11.574;2022-12-11T14:32:55;19.00;;;17.40;;
8102;SDS011;4094;49.948;11.574;2022-12-11T14:35:29;19.23;;;17.63;;
8102;SDS011;4094;49.948;11.574;2022-12-11T14:38:06;19.07;;;17.50;;
8102;SDS011;4094;49.948;11.574;2022-12-11T14:40:44;18.80;;;17.20;;
8102;SDS011;4094;49.948;11.574;2022-12-11T14:43:19;18.73;;;17.13;;
8102;SDS011;4094;49.948;11.574;2022-12-11T14:45:53;18.43;;;17.03;;
8102;SDS011;4094;49.948;11.574;2022-12-11T14:48:26;18.87;;;17.33;;
8102;SDS011;4094;49.948;11.574;2022-12-11T14:50:59;17.73;;;16.33;;
8102;SDS011;4094;49.948;11.574;2022-12-11T14:53:32;19.47;;;17.87;;
8102;SDS011;4094;49.948;11.574;2022-12-11T14:56:06;19.27;;;17.63;;
8102;SDS011;4094;49.948;11.574;2022-12-11T14:58:37;18.83;;;17.23;;
8102;SDS011;4094;49.948;11.574;2022-12-11T15:01:20;19.83;;;18.13;;
8102;SDS011;4094;49.948;11.574;2022-12-11T15:04:00;20.50;;;18.60;;
8102;SDS011;4094;49.948;11.574;2022-12-11T15:06:34;20.63;;;18.83;;
8102;SDS011;4094;49.948;11.574;2022-12-11T15:09:20;22.10;;;20.17;;
8102;SDS011;4094;49.948;11.574;2022-12-11T15:11:54;22.10;;;20.27;;